createdAt,value
2018-06-28T00:00:14.734Z,100227.00
2018-06-28T00:02:19.472Z,100236.00
2018-06-28T00:04:24.181Z,100237.00
2018-06-28T00:06:28.894Z,100228.00
2018-06-28T00:08:33.655Z,100220.00
2018-06-28T00:10:38.426Z,100226.00
2018-06-28T00:12:43.180Z,100221.00
2018-06-28T00:14:48.391Z,100236.00
2018-06-28T00:16:53.279Z,100236.00
2018-06-28T00:18:57.931Z,100236.00
2018-06-28T00:21:02.626Z,100225.00
2018-06-28T00:23:08.142Z,100223.00
2018-06-28T00:25:12.814Z,100237.00
2018-06-28T00:27:17.491Z,100228.00
2018-06-28T00:29:27.084Z,100234.00
2018-06-28T00:31:31.705Z,100233.00
2018-06-28T00:33:36.417Z,100230.00
2018-06-28T00:35:41.054Z,100229.00
2018-06-28T00:37:45.669Z,100236.00
2018-06-28T00:39:50.351Z,100234.00
2018-06-28T00:41:55.018Z,100240.00
2018-06-28T00:43:59.695Z,100234.00
2018-06-28T00:46:04.476Z,100227.00
2018-06-28T00:48:09.171Z,100233.00
2018-06-28T00:50:13.817Z,100238.00
2018-06-28T00:52:18.543Z,100240.00
2018-06-28T00:54:23.232Z,100244.00
2018-06-28T00:56:28.921Z,100245.00
2018-06-28T00:58:33.611Z,100236.00
2018-06-28T01:00:39.793Z,100225.00
2018-06-28T01:02:46.417Z,100231.00
2018-06-28T01:04:59.905Z,100238.00
2018-06-28T01:07:05.930Z,100225.00
2018-06-28T01:09:14.185Z,100229.00
2018-06-28T01:11:23.259Z,100222.00
2018-06-28T01:13:30.715Z,100227.00
2018-06-28T01:15:37.889Z,100237.00
2018-06-28T01:17:43.446Z,100228.00
2018-06-28T01:19:52.809Z,100216.00
2018-06-28T01:21:58.905Z,100220.00
2018-06-28T01:24:06.356Z,100224.00
2018-06-28T01:26:12.891Z,100223.00
2018-06-28T01:28:20.594Z,100223.00
2018-06-28T01:30:27.998Z,100225.00
2018-06-28T01:32:35.383Z,100228.00
2018-06-28T01:34:42.683Z,100231.00
2018-06-28T01:36:49.473Z,100226.00
2018-06-28T01:38:55.942Z,100229.00
2018-06-28T01:41:02.035Z,100222.00
2018-06-28T01:43:42.014Z,100223.00
2018-06-28T01:45:49.256Z,100228.00
2018-06-28T01:47:55.808Z,100231.00
2018-06-28T01:50:03.876Z,100228.00
2018-06-28T01:52:09.283Z,100233.00
2018-06-28T01:54:16.400Z,100220.00
2018-06-28T01:56:23.582Z,100226.00
2018-06-28T01:58:30.662Z,100209.00
2018-06-28T02:00:36.895Z,100217.00
2018-06-28T02:02:41.829Z,100216.00
2018-06-28T02:04:47.051Z,100212.00
2018-06-28T02:06:57.073Z,100221.00
2018-06-28T02:09:02.763Z,100219.00
2018-06-28T02:11:09.852Z,100212.00
2018-06-28T02:13:18.007Z,100219.00
2018-06-28T02:15:24.809Z,100218.00
2018-06-28T02:17:31.208Z,100211.00
2018-06-28T02:19:35.857Z,100207.00
2018-06-28T02:21:40.490Z,100205.00
2018-06-28T02:23:45.210Z,100205.00
2018-06-28T02:25:49.911Z,100200.00
2018-06-28T02:27:54.608Z,100203.00
2018-06-28T02:29:59.231Z,100210.00
2018-06-28T02:32:03.906Z,100210.00
2018-06-28T02:34:09.818Z,100210.00
2018-06-28T02:36:16.426Z,100217.00
2018-06-28T02:38:21.102Z,100212.00
2018-06-28T02:40:25.806Z,100217.00
2018-06-28T02:42:30.486Z,100218.00
2018-06-28T02:44:35.181Z,100224.00
2018-06-28T02:46:39.867Z,100212.00
2018-06-28T02:48:44.512Z,100213.00
2018-06-28T02:50:49.917Z,100215.00
2018-06-28T02:52:54.649Z,100211.00
2018-06-28T02:55:00.075Z,100216.00
2018-06-28T02:57:04.821Z,100220.00
2018-06-28T02:59:10.041Z,100216.00
2018-06-28T03:01:14.713Z,100217.00
2018-06-28T03:03:19.020Z,100214.00
2018-06-28T03:05:23.739Z,100221.00
2018-06-28T03:07:28.388Z,100207.00
2018-06-28T03:09:33.037Z,100209.00
2018-06-28T03:11:41.715Z,100223.00
2018-06-28T03:13:46.280Z,100222.00
2018-06-28T03:15:50.996Z,100218.00
2018-06-28T03:17:55.649Z,100224.00
2018-06-28T03:20:00.333Z,100224.00
2018-06-28T03:22:05.106Z,100231.00
2018-06-28T03:24:10.498Z,100225.00
2018-06-28T03:26:14.872Z,100225.00
2018-06-28T03:28:19.511Z,100220.00
2018-06-28T03:30:24.157Z,100228.00
2018-06-28T03:32:28.798Z,100229.00
2018-06-28T03:34:33.529Z,100233.00
2018-06-28T03:36:38.770Z,100236.00
2018-06-28T03:38:44.461Z,100238.00
2018-06-28T03:40:50.283Z,100231.00
2018-06-28T03:42:54.944Z,100231.00
2018-06-28T03:44:59.691Z,100239.00
2018-06-28T03:47:04.301Z,100243.00
2018-06-28T03:49:09.786Z,100232.00
2018-06-28T03:51:14.427Z,100235.00
2018-06-28T03:53:19.076Z,100237.00
2018-06-28T03:55:23.495Z,100237.00
2018-06-28T03:57:28.570Z,100238.00
2018-06-28T03:59:35.531Z,100236.00
2018-06-28T04:01:43.447Z,100239.00
2018-06-28T04:03:49.983Z,100231.00
2018-06-28T04:05:55.509Z,100230.00
2018-06-28T04:08:01.416Z,100226.00
2018-06-28T04:10:07.030Z,100221.00
2018-06-28T04:12:12.971Z,100228.00
2018-06-28T04:14:18.737Z,100229.00
2018-06-28T04:16:26.494Z,100229.00
2018-06-28T04:18:33.529Z,100228.00
2018-06-28T04:20:38.381Z,100227.00
2018-06-28T04:22:46.805Z,100233.00
2018-06-28T04:24:51.839Z,100229.00
2018-06-28T04:26:56.630Z,100236.00
2018-06-28T04:29:01.241Z,100232.00
2018-06-28T04:31:05.988Z,100233.00
2018-06-28T04:33:10.793Z,100231.00
2018-06-28T04:35:15.516Z,100234.00
2018-06-28T04:37:20.294Z,100229.00
2018-06-28T04:39:25.015Z,100231.00
2018-06-28T04:41:29.673Z,100234.00
2018-06-28T04:43:34.461Z,100234.00
2018-06-28T04:45:39.210Z,100231.00
2018-06-28T04:47:43.917Z,100235.00
2018-06-28T04:49:48.786Z,100238.00
2018-06-28T04:51:53.573Z,100241.00
2018-06-28T04:53:58.358Z,100239.00
2018-06-28T04:56:03.122Z,100236.00
2018-06-28T04:58:07.762Z,100231.00
2018-06-28T05:00:12.343Z,100225.00
2018-06-28T05:02:16.967Z,100231.00
2018-06-28T05:04:21.650Z,100220.00
2018-06-28T05:06:26.333Z,100215.00
2018-06-28T05:08:31.362Z,100220.00
2018-06-28T05:10:36.168Z,100221.00
2018-06-28T05:12:40.465Z,100224.00
2018-06-28T05:14:45.143Z,100222.00
2018-06-28T05:16:49.838Z,100228.00
2018-06-28T05:18:54.515Z,100218.00
2018-06-28T05:20:59.158Z,100215.00
2018-06-28T05:23:03.875Z,100217.00
2018-06-28T05:25:08.639Z,100208.00
2018-06-28T05:27:13.317Z,100214.00
2018-06-28T05:29:17.977Z,100207.00
2018-06-28T05:31:22.623Z,100210.00
2018-06-28T05:33:27.311Z,100207.00
2018-06-28T05:35:32.090Z,100199.00
2018-06-28T05:37:36.884Z,100200.00
2018-06-28T05:39:41.558Z,100202.00
2018-06-28T05:41:46.288Z,100211.00
2018-06-28T05:43:53.192Z,100216.00
2018-06-28T05:45:57.889Z,100214.00
2018-06-28T05:48:02.622Z,100217.00
2018-06-28T05:50:06.939Z,100205.00
2018-06-28T05:52:11.634Z,100213.00
2018-06-28T05:54:16.263Z,100219.00
2018-06-28T05:56:20.976Z,100220.00
2018-06-28T05:58:25.346Z,100211.00
2018-06-28T06:00:30.041Z,100207.00
2018-06-28T06:02:34.804Z,100209.00
2018-06-28T06:04:39.512Z,100199.00
2018-06-28T06:08:44.727Z,100208.00
2018-06-28T06:10:49.185Z,100202.00
2018-06-28T06:12:53.659Z,100209.00
2018-06-28T06:14:58.096Z,100213.00
2018-06-28T06:17:02.557Z,100208.00
2018-06-28T06:19:07.095Z,100211.00
2018-06-28T06:21:11.762Z,100207.00
2018-06-28T06:23:16.309Z,100200.00
2018-06-28T06:25:22.305Z,100203.00
2018-06-28T06:27:26.918Z,100207.00
2018-06-28T06:29:31.866Z,100204.00
2018-06-28T06:31:36.459Z,100198.00
2018-06-28T06:33:40.898Z,100202.00
2018-06-28T06:35:45.371Z,100199.00
2018-06-28T06:37:49.827Z,100195.00
2018-06-28T06:39:54.323Z,100190.00
2018-06-28T06:41:58.842Z,100185.00
2018-06-28T06:44:03.796Z,100182.00
2018-06-28T06:46:08.266Z,100195.00
2018-06-28T06:48:12.746Z,100198.00
2018-06-28T06:50:17.295Z,100187.00
2018-06-28T06:52:21.803Z,100202.00
2018-06-28T06:54:26.511Z,100196.00
2018-06-28T06:56:31.040Z,100198.00
2018-06-28T06:58:35.542Z,100184.00
2018-06-28T07:00:39.786Z,100190.00
2018-06-28T07:02:44.788Z,100184.00
2018-06-28T07:04:49.855Z,100188.00
2018-06-28T07:06:57.823Z,100194.00
2018-06-28T07:09:02.282Z,100179.00
2018-06-28T07:11:07.194Z,100185.00
2018-06-28T07:13:11.703Z,100179.00
2018-06-28T07:15:15.925Z,100184.00
2018-06-28T07:17:20.413Z,100183.00
2018-06-28T07:19:24.945Z,100179.00
2018-06-28T07:21:29.445Z,100179.00
2018-06-28T07:23:33.985Z,100183.00
2018-06-28T07:25:38.430Z,100177.00
2018-06-28T07:27:42.890Z,100178.00
2018-06-28T07:29:47.373Z,100180.00
2018-06-28T07:31:51.844Z,100184.00
2018-06-28T07:33:56.595Z,100179.00
2018-06-28T07:36:01.104Z,100179.00
2018-06-28T07:38:05.997Z,100185.00
2018-06-28T07:40:10.625Z,100186.00
2018-06-28T07:42:15.655Z,100184.00
2018-06-28T07:44:20.149Z,100179.00
2018-06-28T07:46:24.637Z,100179.00
2018-06-28T07:48:29.135Z,100187.00
2018-06-28T07:50:33.671Z,100183.00
2018-06-28T07:52:38.228Z,100192.00
2018-06-28T07:54:42.783Z,100189.00
2018-06-28T07:56:47.315Z,100189.00
2018-06-28T07:58:51.812Z,100192.00
2018-06-28T08:00:56.245Z,100185.00
2018-06-28T08:03:00.755Z,100195.00
2018-06-28T08:05:05.355Z,100183.00
2018-06-28T08:07:09.918Z,100182.00
2018-06-28T08:09:14.402Z,100181.00
2018-06-28T08:11:18.926Z,100186.00
2018-06-28T08:13:23.595Z,100183.00
2018-06-28T08:15:28.058Z,100184.00
2018-06-28T08:17:32.564Z,100177.00
2018-06-28T08:19:38.338Z,100171.00
2018-06-28T08:21:42.923Z,100169.00
2018-06-28T08:23:47.583Z,100189.00
2018-06-28T08:25:52.167Z,100184.00
2018-06-28T08:27:57.063Z,100181.00
2018-06-28T08:30:01.551Z,100174.00
2018-06-28T08:32:08.460Z,100189.00
2018-06-28T08:34:15.351Z,100197.00
2018-06-28T08:36:24.139Z,100186.00
2018-06-28T08:38:29.938Z,100183.00
2018-06-28T08:40:36.281Z,100189.00
2018-06-28T08:42:43.026Z,100186.00
2018-06-28T08:44:51.065Z,100186.00
2018-06-28T08:46:58.961Z,100195.00
2018-06-28T08:49:07.289Z,100203.00
2018-06-28T08:51:14.683Z,100190.00
2018-06-28T08:53:22.074Z,100192.00
2018-06-28T08:55:26.743Z,100186.00
2018-06-28T08:57:31.465Z,100188.00
2018-06-28T08:59:35.999Z,100194.00
2018-06-28T09:01:40.466Z,100185.00
2018-06-28T09:03:45.007Z,100185.00
2018-06-28T09:05:49.499Z,100185.00
2018-06-28T09:07:54.088Z,100185.00
2018-06-28T09:09:58.709Z,100189.00
2018-06-28T09:12:03.833Z,100183.00
2018-06-28T09:14:08.465Z,100189.00
2018-06-28T09:16:12.921Z,100189.00
2018-06-28T09:18:18.509Z,100187.00
2018-06-28T09:20:22.982Z,100191.00
2018-06-28T09:22:27.597Z,100184.00
2018-06-28T09:24:32.171Z,100186.00
2018-06-28T09:26:41.265Z,100184.00
2018-06-28T09:28:45.845Z,100167.00
2018-06-28T09:30:50.387Z,100181.00
2018-06-28T09:32:55.868Z,100166.00
2018-06-28T09:35:00.464Z,100170.00
2018-06-28T09:37:05.377Z,100165.00
2018-06-28T09:39:11.246Z,100174.00
2018-06-28T09:41:15.709Z,100167.00
2018-06-28T09:43:20.210Z,100166.00
2018-06-28T09:45:24.947Z,100158.00
2018-06-28T09:47:29.411Z,100160.00
2018-06-28T09:49:33.891Z,100162.00
2018-06-28T09:51:38.405Z,100162.00
2018-06-28T09:53:44.219Z,100151.00
2018-06-28T09:55:48.714Z,100151.00
2018-06-28T09:57:53.318Z,100144.00
2018-06-28T09:59:57.820Z,100150.00
2018-06-28T10:02:02.315Z,100155.00
2018-06-28T10:04:06.898Z,100151.00
2018-06-28T10:06:11.369Z,100138.00
2018-06-28T10:08:15.866Z,100159.00
2018-06-28T10:10:20.406Z,100152.00
2018-06-28T10:12:24.879Z,100151.00
2018-06-28T10:14:29.424Z,100151.00
2018-06-28T10:16:34.068Z,100148.00
2018-06-28T10:18:38.571Z,100137.00
2018-06-28T10:20:43.110Z,100136.00
2018-06-28T10:22:47.721Z,100136.00
2018-06-28T10:24:52.199Z,100135.00
2018-06-28T10:26:56.851Z,100134.00
2018-06-28T10:29:01.311Z,100134.00
2018-06-28T10:31:05.819Z,100126.00
2018-06-28T10:33:10.292Z,100120.00
2018-06-28T10:35:14.958Z,100125.00
2018-06-28T10:37:19.425Z,100131.00
2018-06-28T10:39:24.706Z,100135.00
2018-06-28T10:41:29.186Z,100112.00
2018-06-28T10:43:33.831Z,100126.00
2018-06-28T10:45:38.556Z,100126.00
2018-06-28T10:47:43.052Z,100125.00
2018-06-28T10:49:47.532Z,100118.00
2018-06-28T10:51:52.106Z,100123.00
2018-06-28T10:53:56.595Z,100103.00
2018-06-28T10:56:01.091Z,100111.00
2018-06-28T10:58:06.339Z,100111.00
2018-06-28T11:00:11.026Z,100113.00
2018-06-28T11:02:15.531Z,100105.00
2018-06-28T11:04:20.122Z,100103.00
2018-06-28T11:06:25.010Z,100093.00
2018-06-28T11:08:29.689Z,100089.00
2018-06-28T11:10:34.377Z,100089.00
2018-06-28T11:12:38.835Z,100094.00
2018-06-28T11:14:43.392Z,100085.00
2018-06-28T11:16:49.051Z,100091.00
2018-06-28T11:18:53.544Z,100090.00
2018-06-28T11:20:58.643Z,100088.00
2018-06-28T11:23:03.964Z,100082.00
2018-06-28T11:25:08.478Z,100078.00
2018-06-28T11:27:13.565Z,100080.00
2018-06-28T11:29:18.039Z,100084.00
2018-06-28T11:31:23.302Z,100079.00
2018-06-28T11:33:27.909Z,100081.00
2018-06-28T11:35:32.465Z,100073.00
2018-06-28T11:37:37.426Z,100073.00
2018-06-28T11:39:41.918Z,100070.00
2018-06-28T11:41:46.523Z,100069.00
2018-06-28T11:43:51.354Z,100065.00
2018-06-28T11:45:56.397Z,100064.00
2018-06-28T11:48:00.864Z,100064.00
2018-06-28T11:50:06.119Z,100056.00
2018-06-28T11:52:10.595Z,100054.00
2018-06-28T11:54:15.287Z,100048.00
2018-06-28T11:56:20.422Z,100050.00
2018-06-28T11:58:25.134Z,100036.00
2018-06-28T12:00:29.603Z,100040.00
2018-06-28T12:02:34.905Z,100041.00
2018-06-28T12:04:40.143Z,100040.00
2018-06-28T12:06:44.635Z,100046.00
2018-06-28T12:08:49.117Z,100032.00
2018-06-28T12:10:53.940Z,100030.00
2018-06-28T12:12:58.401Z,100026.00
2018-06-28T12:15:02.992Z,100038.00
2018-06-28T12:17:07.525Z,100040.00
2018-06-28T12:19:12.783Z,100030.00
2018-06-28T12:21:17.675Z,100041.00
2018-06-28T12:23:22.363Z,100027.00
2018-06-28T12:25:26.892Z,100041.00
2018-06-28T12:27:31.403Z,100034.00
2018-06-28T12:29:36.180Z,100021.00
2018-06-28T12:31:40.694Z,100027.00
2018-06-28T12:33:45.223Z,100033.00
2018-06-28T12:35:54.149Z,100012.00
2018-06-28T12:37:58.872Z,100015.00
2018-06-28T12:40:04.195Z,100010.00
2018-06-28T12:42:08.939Z,100019.00
2018-06-28T12:44:14.280Z,100016.00
2018-06-28T12:46:18.914Z,100001.00
2018-06-28T12:48:23.610Z,100004.00
2018-06-28T12:50:28.165Z,100007.00
2018-06-28T12:53:00.105Z,99995.00
2018-06-28T12:55:05.330Z,100002.00
2018-06-28T12:57:09.858Z,100001.00
2018-06-28T12:59:16.664Z,100002.00
2018-06-28T13:01:22.155Z,99988.00
2018-06-28T13:03:26.618Z,100001.00
2018-06-28T13:05:31.050Z,99990.00
2018-06-28T13:07:36.264Z,99999.00
2018-06-28T13:09:40.676Z,99986.00
2018-06-28T13:11:45.538Z,99987.00
2018-06-28T13:13:50.119Z,99992.00
2018-06-28T13:15:55.212Z,99980.00
2018-06-28T13:18:00.084Z,99978.00
2018-06-28T13:20:05.211Z,99972.00
2018-06-28T13:22:09.679Z,99976.00
2018-06-28T13:24:14.170Z,99975.00
2018-06-28T13:26:18.959Z,99973.00
2018-06-28T13:28:23.387Z,99971.00
2018-06-28T13:30:27.827Z,99979.00
2018-06-28T13:32:34.157Z,99969.00
2018-06-28T13:34:38.714Z,99968.00
2018-06-28T13:36:43.424Z,99971.00
2018-06-28T13:38:47.918Z,99964.00
2018-06-28T13:40:53.443Z,99948.00
2018-06-28T13:42:58.886Z,99946.00
2018-06-28T13:45:03.360Z,99958.00
2018-06-28T13:47:08.277Z,99952.00
2018-06-28T13:49:13.904Z,99953.00
2018-06-28T13:51:18.339Z,99949.00
2018-06-28T13:53:23.062Z,99939.00
2018-06-28T13:55:27.566Z,99950.00
2018-06-28T13:57:32.069Z,99935.00
2018-06-28T13:59:37.042Z,99946.00
2018-06-28T14:01:41.899Z,99933.00
2018-06-28T14:03:46.344Z,99934.00
2018-06-28T14:05:50.809Z,99929.00
2018-06-28T14:07:55.894Z,99933.00
2018-06-28T14:10:00.351Z,99926.00
2018-06-28T14:12:04.889Z,99923.00
2018-06-28T14:14:09.709Z,99914.00
2018-06-28T14:16:14.196Z,99926.00
2018-06-28T14:18:18.699Z,99931.00
2018-06-28T14:20:23.239Z,99927.00
2018-06-28T14:22:27.798Z,99923.00
2018-06-28T14:24:32.263Z,99917.00
2018-06-28T14:26:36.790Z,99922.00
2018-06-28T14:28:41.333Z,99914.00
2018-06-28T14:30:45.793Z,99905.00
2018-06-28T14:32:50.321Z,99914.00
2018-06-28T14:34:54.837Z,99911.00
2018-06-28T14:36:59.322Z,99904.00
2018-06-28T14:39:04.470Z,99901.00
2018-06-28T14:41:09.722Z,99905.00
2018-06-28T14:43:14.314Z,99889.00
2018-06-28T14:45:18.796Z,99893.00
2018-06-28T14:47:23.585Z,99895.00
2018-06-28T14:49:28.049Z,99906.00
2018-06-28T14:51:32.608Z,99905.00
2018-06-28T14:53:37.130Z,99905.00
2018-06-28T14:55:41.595Z,99898.00
2018-06-28T14:57:47.862Z,99899.00
2018-06-28T14:59:52.377Z,99891.00
2018-06-28T15:01:57.056Z,99886.00
2018-06-28T15:04:01.526Z,99883.00
2018-06-28T15:06:06.068Z,99876.00
2018-06-28T15:08:10.790Z,99883.00
2018-06-28T15:10:20.843Z,99882.00
2018-06-28T15:12:25.273Z,99881.00
2018-06-28T15:14:31.617Z,99883.00
2018-06-28T15:16:39.813Z,99872.00
2018-06-28T15:18:46.471Z,99879.00
2018-06-28T15:20:53.533Z,99891.00
2018-06-28T15:23:04.883Z,99869.00
2018-06-28T15:25:17.535Z,99868.00
2018-06-28T15:27:28.653Z,99871.00
2018-06-28T15:29:38.863Z,99862.00
2018-06-28T15:31:43.319Z,99869.00
2018-06-28T15:33:47.930Z,99867.00
2018-06-28T15:35:52.394Z,99871.00
2018-06-28T15:37:57.330Z,99873.00
2018-06-28T15:40:01.773Z,99865.00
2018-06-28T15:42:06.306Z,99866.00
2018-06-28T15:44:10.903Z,99866.00
2018-06-28T15:46:15.390Z,99855.00
2018-06-28T15:48:19.916Z,99868.00
2018-06-28T15:50:24.404Z,99860.00
2018-06-28T15:52:28.923Z,99855.00
2018-06-28T15:54:33.433Z,99863.00
2018-06-28T15:56:37.895Z,99858.00
2018-06-28T15:58:42.435Z,99858.00
2018-06-28T16:00:46.973Z,99844.00
2018-06-28T16:02:51.485Z,99853.00
2018-06-28T16:04:56.075Z,99856.00
2018-06-28T16:07:00.899Z,99858.00
2018-06-28T16:09:08.337Z,99853.00
2018-06-28T16:11:12.907Z,99851.00
2018-06-28T16:13:17.354Z,99854.00
2018-06-28T16:15:21.846Z,99857.00
2018-06-28T16:17:26.380Z,99845.00
2018-06-28T16:19:30.884Z,99840.00
2018-06-28T16:21:35.417Z,99839.00
2018-06-28T16:23:40.195Z,99842.00
2018-06-28T16:25:44.722Z,99857.00
2018-06-28T16:27:50.075Z,99839.00
2018-06-28T16:29:54.588Z,99841.00
2018-06-28T16:32:00.127Z,99847.00
2018-06-28T16:34:04.740Z,99842.00
2018-06-28T16:36:09.435Z,99838.00
2018-06-28T16:38:13.910Z,99844.00
2018-06-28T16:40:18.691Z,99848.00
2018-06-28T16:42:23.192Z,99839.00
2018-06-28T16:44:27.859Z,99848.00
2018-06-28T16:46:32.710Z,99848.00
2018-06-28T16:48:37.461Z,99845.00
2018-06-28T16:50:42.130Z,99845.00
2018-06-28T16:52:46.603Z,99839.00
2018-06-28T16:54:51.210Z,99842.00
2018-06-28T16:56:56.549Z,99849.00
2018-06-28T16:59:02.164Z,99845.00
2018-06-28T17:01:07.366Z,99840.00
2018-06-28T17:03:15.187Z,99837.00
2018-06-28T17:05:20.974Z,99835.00
2018-06-28T17:07:25.481Z,99832.00
2018-06-28T17:09:29.977Z,99835.00
2018-06-28T17:11:34.564Z,99835.00
2018-06-28T17:13:39.074Z,99818.00
2018-06-28T17:15:43.593Z,99830.00
2018-06-28T17:17:48.051Z,99832.00
2018-06-28T17:19:52.808Z,99830.00
2018-06-28T17:21:57.309Z,99838.00
2018-06-28T17:24:01.831Z,99834.00
2018-06-28T17:26:06.669Z,99833.00
2018-06-28T17:28:11.781Z,99829.00
2018-06-28T17:30:16.306Z,99821.00
2018-06-28T17:32:21.019Z,99836.00
2018-06-28T17:34:25.757Z,99827.00
2018-06-28T17:36:30.199Z,99821.00
2018-06-28T17:38:34.892Z,99831.00
2018-06-28T17:40:41.074Z,99826.00
2018-06-28T17:42:45.855Z,99826.00
2018-06-28T17:44:50.453Z,99824.00
2018-06-28T17:46:55.884Z,99825.00
2018-06-28T17:49:00.677Z,99827.00
2018-06-28T17:51:05.860Z,99826.00
2018-06-28T17:53:10.389Z,99837.00
2018-06-28T17:55:14.904Z,99826.00
2018-06-28T17:57:19.794Z,99827.00
2018-06-28T17:59:26.150Z,99825.00
2018-06-28T18:01:31.494Z,99826.00
2018-06-28T18:03:36.974Z,99832.00
2018-06-28T18:05:42.110Z,99824.00
2018-06-28T18:07:46.672Z,99825.00
2018-06-28T18:09:51.236Z,99826.00
2018-06-28T18:11:56.153Z,99828.00
2018-06-28T18:14:01.354Z,99821.00
2018-06-28T18:16:05.901Z,99825.00
2018-06-28T18:18:10.403Z,99825.00
2018-06-28T18:20:15.166Z,99818.00
2018-06-28T18:22:20.347Z,99820.00
2018-06-28T18:24:24.804Z,99811.00
2018-06-28T18:26:29.231Z,99824.00
2018-06-28T18:28:33.777Z,99819.00
2018-06-28T18:30:39.123Z,99822.00
2018-06-28T18:32:50.813Z,99817.00
2018-06-28T18:34:55.360Z,99818.00
2018-06-28T18:36:59.852Z,99821.00
2018-06-28T18:39:09.185Z,99827.00
2018-06-28T18:41:13.679Z,99812.00
2018-06-28T18:43:18.572Z,99821.00
2018-06-28T18:45:24.275Z,99826.00
2018-06-28T18:47:31.103Z,99823.00
2018-06-28T18:49:35.959Z,99820.00
2018-06-28T18:51:41.440Z,99822.00
2018-06-28T18:53:46.963Z,99825.00
2018-06-28T18:55:58.816Z,99808.00
2018-06-28T18:58:04.420Z,99824.00
2018-06-28T19:00:09.006Z,99821.00
2018-06-28T19:02:14.060Z,99823.00
2018-06-28T19:04:18.608Z,99817.00
2018-06-28T19:06:24.246Z,99813.00
2018-06-28T19:08:30.259Z,99827.00
2018-06-28T19:10:40.877Z,99822.00
2018-06-28T19:12:45.665Z,99832.00
2018-06-28T19:14:55.330Z,99832.00
2018-06-28T19:17:00.215Z,99830.00
2018-06-28T19:19:05.505Z,99829.00
2018-06-28T19:21:15.332Z,99831.00
2018-06-28T19:23:25.048Z,99829.00
2018-06-28T19:25:30.582Z,99831.00
2018-06-28T19:27:35.321Z,99836.00
2018-06-28T19:29:45.599Z,99833.00
2018-06-28T19:31:55.769Z,99838.00
2018-06-28T19:34:00.986Z,99842.00
2018-06-28T19:36:06.307Z,99834.00
2018-06-28T19:38:11.031Z,99839.00
2018-06-28T19:40:20.975Z,99832.00
2018-06-28T19:42:31.347Z,99842.00
2018-06-28T19:44:37.225Z,99847.00
2018-06-28T19:46:42.051Z,99845.00
2018-06-28T19:48:47.847Z,99847.00
2018-06-28T19:50:58.159Z,99850.00
2018-06-28T19:53:07.356Z,99847.00
2018-06-28T19:55:11.861Z,99847.00
2018-06-28T19:57:16.797Z,99851.00
2018-06-28T19:59:21.384Z,99854.00
2018-06-28T20:01:31.689Z,99852.00
2018-06-28T20:03:41.811Z,99856.00
2018-06-28T20:05:46.447Z,99858.00
2018-06-28T20:07:51.918Z,99861.00
2018-06-28T20:09:56.827Z,99867.00
2018-06-28T20:12:01.618Z,99873.00
2018-06-28T20:14:11.752Z,99864.00
2018-06-28T20:16:21.623Z,99866.00
2018-06-28T20:18:31.417Z,99874.00
2018-06-28T20:20:36.418Z,99874.00
2018-06-28T20:22:41.156Z,99876.00
2018-06-28T20:24:45.685Z,99875.00
2018-06-28T20:26:55.458Z,99873.00
2018-06-28T20:29:05.149Z,99873.00
2018-06-28T20:31:14.631Z,99879.00
2018-06-28T20:33:25.639Z,99873.00
2018-06-28T20:35:30.117Z,99879.00
2018-06-28T20:37:34.807Z,99876.00
2018-06-28T20:39:39.263Z,99875.00
2018-06-28T20:41:43.821Z,99875.00
2018-06-28T20:43:48.420Z,99882.00
2018-06-28T20:45:53.033Z,99876.00
2018-06-28T20:47:57.447Z,99885.00
2018-06-28T20:50:02.302Z,99880.00
2018-06-28T20:52:07.014Z,99887.00
2018-06-28T20:54:11.510Z,99886.00
2018-06-28T20:56:16.086Z,99884.00
2018-06-28T20:58:20.539Z,99888.00
2018-06-28T21:00:26.533Z,99881.00
2018-06-28T21:02:30.811Z,99886.00
2018-06-28T21:04:35.255Z,99887.00
2018-06-28T21:06:39.746Z,99887.00
2018-06-28T21:08:44.426Z,99886.00
2018-06-28T21:10:49.919Z,99881.00
2018-06-28T21:12:57.811Z,99884.00
2018-06-28T21:15:02.528Z,99885.00
2018-06-28T21:17:07.103Z,99886.00
2018-06-28T21:19:11.541Z,99885.00
2018-06-28T21:21:16.068Z,99886.00
2018-06-28T21:23:20.766Z,99893.00
2018-06-28T21:25:25.411Z,99886.00
2018-06-28T21:27:29.912Z,99896.00
2018-06-28T21:29:35.683Z,99881.00
2018-06-28T21:31:40.130Z,99890.00
2018-06-28T21:33:44.580Z,99899.00
2018-06-28T21:35:49.085Z,99894.00
2018-06-28T21:37:53.623Z,99901.00
2018-06-28T21:39:58.090Z,99897.00
2018-06-28T21:42:02.683Z,99898.00
2018-06-28T21:44:07.494Z,99885.00
2018-06-28T21:46:11.945Z,99883.00
2018-06-28T21:48:16.620Z,99890.00
2018-06-28T21:50:21.053Z,99890.00
2018-06-28T21:52:25.562Z,99892.00
2018-06-28T21:54:29.702Z,99891.00
2018-06-28T21:56:34.170Z,99896.00
2018-06-28T21:58:38.659Z,99893.00
2018-06-28T22:00:43.198Z,99898.00
2018-06-28T22:02:47.713Z,99897.00
2018-06-28T22:04:52.191Z,99896.00
2018-06-28T22:06:56.666Z,99901.00
2018-06-28T22:10:56.450Z,99897.00
2018-06-28T22:13:00.975Z,99895.00
2018-06-28T22:15:06.148Z,99887.00
2018-06-28T22:17:10.673Z,99892.00
2018-06-28T22:19:15.142Z,99891.00
2018-06-28T22:21:19.684Z,99896.00
2018-06-28T22:23:24.148Z,99886.00
2018-06-28T22:25:29.688Z,99896.00
2018-06-28T22:27:34.191Z,99888.00
2018-06-28T22:29:38.666Z,99888.00
2018-06-28T22:31:43.146Z,99878.00
2018-06-28T22:33:47.708Z,99891.00
2018-06-28T22:35:52.151Z,99891.00
2018-06-28T22:37:56.631Z,99891.00
2018-06-28T22:40:01.086Z,99896.00
2018-06-28T22:42:05.563Z,99895.00
2018-06-28T22:44:10.058Z,99894.00
2018-06-28T22:46:14.470Z,99902.00
2018-06-28T22:48:18.919Z,99901.00
2018-06-28T22:50:23.460Z,99894.00
2018-06-28T22:52:27.982Z,99897.00
2018-06-28T22:54:32.487Z,99889.00
2018-06-28T22:56:36.911Z,99897.00
2018-06-28T22:58:41.390Z,99897.00
2018-06-28T23:00:45.906Z,99888.00
2018-06-28T23:02:50.411Z,99896.00
2018-06-28T23:04:55.529Z,99893.00
2018-06-28T23:07:00.033Z,99893.00
2018-06-28T23:09:07.074Z,99882.00
2018-06-28T23:11:11.642Z,99890.00
2018-06-28T23:13:16.133Z,99892.00
2018-06-28T23:15:20.595Z,99891.00
2018-06-28T23:17:25.161Z,99884.00
2018-06-28T23:19:29.658Z,99888.00
2018-06-28T23:21:34.186Z,99889.00
2018-06-28T23:23:38.475Z,99891.00
2018-06-28T23:25:42.931Z,99896.00
2018-06-28T23:27:48.861Z,99901.00
2018-06-28T23:29:53.287Z,99895.00
2018-06-28T23:31:57.803Z,99898.00
2018-06-28T23:34:02.861Z,99901.00
2018-06-28T23:36:08.256Z,99903.00
2018-06-28T23:38:12.714Z,99909.00
2018-06-28T23:40:17.170Z,99904.00
2018-06-28T23:42:21.615Z,99900.00
2018-06-28T23:44:26.107Z,99903.00
2018-06-28T23:46:30.546Z,99903.00
2018-06-28T23:48:35.055Z,99905.00
2018-06-28T23:50:39.526Z,99904.00
2018-06-28T23:52:44.074Z,99906.00
2018-06-28T23:54:48.713Z,99895.00
2018-06-28T23:56:54.116Z,99900.00
2018-06-28T23:58:58.750Z,99903.00
